Time;durP1;ratioP1;P1;durP2;ratioP2;P2;SDS_P1;SDS_P2;PMS_P1;PMS_P2;Temp;Humidity;BMP_temperature;BMP_pressure;BME280_temperature;BME280_humidity;BME280_pressure;Samples;Min_cycle;Max_cycle;Signal;HPM_P1;HPM_P2
2022/01/29 00:00:50;;;;;;;40.53;15.77;;;;;6.80;102274.00;;;;4985896;28;20321;-71
2022/01/29 00:03:36;;;;;;;34.03;14.83;;;;;6.90;102270.00;;;;4997761;28;20257;-73
2022/01/29 00:06:23;;;;;;;37.90;16.10;;;;;6.80;102262.00;;;;4997146;28;20238;-72
2022/01/29 00:09:13;;;;;;;37.43;15.37;;;;;6.90;102259.00;;;;5005751;28;20245;-72
2022/01/29 00:12:01;;;;;;;33.40;15.03;;;;;6.70;102256.00;;;;5001148;28;20288;-70
2022/01/29 00:14:47;;;;;;;37.03;16.23;;;;;6.90;102259.00;;;;4998687;28;20237;-70
2022/01/29 00:17:33;;;;;;;31.87;15.17;;;;;6.90;102248.00;;;;5001094;28;20806;-68
2022/01/29 00:20:20;;;;;;;29.97;14.13;;;;;6.80;102230.00;;;;5002141;28;20830;-71
2022/01/29 00:23:06;;;;;;;30.10;14.17;;;;;6.80;102235.00;;;;5005709;28;20581;-70
2022/01/29 00:25:52;;;;;;;32.87;14.33;;;;;6.70;102228.00;;;;5003576;28;20238;-70
2022/01/29 00:28:40;;;;;;;34.13;14.97;;;;;6.80;102224.00;;;;5003174;28;20368;-70
2022/01/29 00:31:26;;;;;;;35.57;15.50;;;;;6.90;102213.00;;;;5003198;28;20241;-70
2022/01/29 00:34:14;;;;;;;33.23;14.33;;;;;6.90;102201.00;;;;5001508;28;20233;-71
2022/01/29 00:37:01;;;;;;;33.63;14.17;;;;;6.90;102219.00;;;;5000608;28;20238;-70
2022/01/29 00:39:47;;;;;;;36.27;15.23;;;;;6.70;102221.00;;;;4998275;28;20606;-70
2022/01/29 00:42:33;;;;;;;34.67;15.10;;;;;6.80;102209.00;;;;5008728;28;20600;-70
2022/01/29 00:45:21;;;;;;;33.10;14.97;;;;;6.70;102206.00;;;;4998391;28;20713;-67
2022/01/29 00:48:07;;;;;;;34.17;15.30;;;;;6.70;102203.00;;;;5004517;28;20241;-71
2022/01/29 00:50:54;;;;;;;32.03;14.90;;;;;6.80;102197.00;;;;5000696;28;20849;-71
2022/01/29 00:53:40;;;;;;;33.80;13.33;;;;;6.80;102200.00;;;;5009233;28;20292;-70
2022/01/29 00:56:27;;;;;;;34.87;13.97;;;;;6.70;102187.00;;;;5002957;28;20257;-72
2022/01/29 00:59:13;;;;;;;33.47;14.43;;;;;6.80;102189.00;;;;5002731;28;20749;-68
2022/01/29 01:02:02;;;;;;;33.70;15.63;;;;;6.70;102188.00;;;;5002911;28;20233;-71
2022/01/29 01:04:48;;;;;;;36.63;15.90;;;;;6.90;102178.00;;;;5001788;28;20330;-70
2022/01/29 01:07:34;;;;;;;33.77;14.57;;;;;6.80;102184.00;;;;5008221;28;20229;-73
2022/01/29 01:10:21;;;;;;;32.83;14.90;;;;;6.60;102184.00;;;;5007931;28;20250;-69
2022/01/29 01:13:08;;;;;;;34.13;14.00;;;;;6.80;102157.00;;;;5009031;28;20237;-71
2022/01/29 01:15:54;;;;;;;37.00;15.17;;;;;6.90;102158.00;;;;5002010;28;20236;-71
2022/01/29 01:18:41;;;;;;;37.47;14.53;;;;;6.70;102151.00;;;;5008704;28;20217;-71
2022/01/29 01:21:28;;;;;;;39.90;15.47;;;;;6.70;102149.00;;;;5008000;28;20237;-71
2022/01/29 01:24:14;;;;;;;34.47;15.10;;;;;6.70;102158.00;;;;5001993;28;20367;-71
2022/01/29 01:27:00;;;;;;;38.17;15.63;;;;;6.70;102132.00;;;;5002664;28;20226;-70
2022/01/29 01:29:47;;;;;;;38.47;15.53;;;;;6.90;102102.00;;;;4990029;28;20238;-71
2022/01/29 01:32:33;;;;;;;40.87;15.27;;;;;6.80;102110.00;;;;5006807;28;20229;-71
2022/01/29 01:35:25;;;;;;;41.73;16.37;;;;;6.80;102109.00;;;;5000810;28;20309;-71
2022/01/29 01:38:16;;;;;;;42.63;16.30;;;;;6.70;102117.00;;;;5003927;28;20241;-71
2022/01/29 01:41:06;;;;;;;41.13;17.00;;;;;6.90;102116.00;;;;5008067;28;20252;-71
2022/01/29 01:44:00;;;;;;;38.53;16.70;;;;;6.90;102125.00;;;;5005064;28;20225;-71
2022/01/29 01:46:46;;;;;;;42.47;16.23;;;;;6.90;102116.00;;;;5000799;28;20706;-71
2022/01/29 01:49:33;;;;;;;38.67;16.47;;;;;6.80;102109.00;;;;5006205;28;20242;-70
2022/01/29 01:52:20;;;;;;;38.83;15.53;;;;;6.90;102097.00;;;;5004259;28;20230;-71
2022/01/29 01:55:08;;;;;;;35.33;16.50;;;;;6.90;102085.00;;;;5003282;28;20370;-68
2022/01/29 01:57:55;;;;;;;39.27;16.23;;;;;6.70;102082.00;;;;5002175;28;20254;-70
2022/01/29 02:00:41;;;;;;;39.87;16.77;;;;;6.80;102087.00;;;;5005610;28;20757;-73
2022/01/29 02:03:27;;;;;;;43.77;16.53;;;;;6.80;102088.00;;;;4996460;28;20748;-71
2022/01/29 02:06:14;;;;;;;41.90;16.77;;;;;6.70;102087.00;;;;4997622;28;20239;-71
2022/01/29 02:09:02;;;;;;;39.20;16.13;;;;;6.80;102086.00;;;;5001691;28;20736;-66
2022/01/29 02:11:53;;;;;;;41.50;16.70;;;;;6.90;102089.00;;;;4995404;28;20741;-69
2022/01/29 02:14:40;;;;;;;39.30;16.80;;;;;6.90;102082.00;;;;4998663;28;20357;-71
2022/01/29 02:17:26;;;;;;;35.23;15.13;;;;;6.80;102074.00;;;;5001796;28;20260;-71
2022/01/29 02:20:13;;;;;;;40.27;16.13;;;;;6.90;102075.00;;;;5001779;28;20230;-71
2022/01/29 02:23:01;;;;;;;36.83;16.27;;;;;6.90;102073.00;;;;5001648;28;20771;-70
2022/01/29 02:25:49;;;;;;;37.30;15.30;;;;;6.90;102073.00;;;;4995569;28;20237;-70
2022/01/29 02:28:35;;;;;;;40.07;16.17;;;;;6.90;102061.00;;;;5000043;28;20704;-70
2022/01/29 02:31:22;;;;;;;43.33;16.30;;;;;6.80;102059.00;;;;5006480;28;20308;-68
2022/01/29 02:34:08;;;;;;;39.53;14.93;;;;;6.70;102052.00;;;;5002562;28;20234;-70
2022/01/29 02:36:55;;;;;;;42.37;16.03;;;;;6.70;102049.00;;;;5001143;28;20234;-70
2022/01/29 02:39:43;;;;;;;41.70;16.67;;;;;6.70;102036.00;;;;4999456;28;20735;-70
2022/01/29 02:42:29;;;;;;;40.30;16.90;;;;;6.80;102036.00;;;;5000547;28;20234;-71
2022/01/29 02:45:15;;;;;;;39.80;14.87;;;;;6.70;102039.00;;;;5006757;28;20623;-71
2022/01/29 02:48:01;;;;;;;46.63;16.47;;;;;6.80;102035.00;;;;5001509;28;20462;-68
2022/01/29 02:50:49;;;;;;;48.13;16.70;;;;;6.70;102033.00;;;;5004867;28;20396;-71
2022/01/29 02:53:35;;;;;;;40.07;15.93;;;;;6.70;102018.00;;;;5004848;28;20369;-71
2022/01/29 02:56:23;;;;;;;47.23;16.43;;;;;6.60;102009.00;;;;5006564;28;20233;-71
2022/01/29 02:59:09;;;;;;;39.60;16.87;;;;;6.70;101990.00;;;;5000409;28;21052;-71
2022/01/29 03:01:55;;;;;;;35.03;14.97;;;;;6.70;101983.00;;;;5006562;28;20229;-71
2022/01/29 03:04:42;;;;;;;39.57;17.47;;;;;6.70;101991.00;;;;5005572;28;20237;-68
2022/01/29 03:07:28;;;;;;;41.20;16.47;;;;;6.90;102000.00;;;;4999174;28;20308;-70
2022/01/29 03:10:15;;;;;;;42.43;17.67;;;;;6.70;101989.00;;;;4998725;28;20233;-70
2022/01/29 03:13:03;;;;;;;43.73;17.63;;;;;6.70;101983.00;;;;5001212;28;20237;-71
2022/01/29 03:15:49;;;;;;;47.80;17.20;;;;;6.70;101985.00;;;;5005741;28;20241;-71
2022/01/29 03:18:35;;;;;;;45.33;17.33;;;;;6.70;101987.00;;;;5003087;28;20234;-71
2022/01/29 03:21:22;;;;;;;41.37;18.20;;;;;6.70;101981.00;;;;5001656;28;20230;-69
2022/01/29 03:24:08;;;;;;;43.47;16.80;;;;;6.70;101979.00;;;;5002702;28;20625;-71
2022/01/29 03:26:54;;;;;;;42.83;16.33;;;;;6.70;101981.00;;;;4995785;28;20308;-71
2022/01/29 03:29:42;;;;;;;41.80;16.73;;;;;6.70;101978.00;;;;4999056;28;20390;-71
2022/01/29 03:32:28;;;;;;;39.77;17.57;;;;;6.80;101976.00;;;;4993070;28;20234;-70
2022/01/29 03:35:16;;;;;;;38.93;17.83;;;;;6.80;101962.00;;;;4992149;28;20309;-71
2022/01/29 03:38:02;;;;;;;42.27;17.47;;;;;6.80;101966.00;;;;4995728;28;20286;-70
2022/01/29 03:40:49;;;;;;;43.33;16.77;;;;;6.70;101958.00;;;;5005286;28;20241;-70
2022/01/29 03:43:43;;;;;;;43.40;18.30;;;;;6.70;101968.00;;;;5004701;28;20245;-71
2022/01/29 03:46:32;;;;;;;38.23;16.13;;;;;6.70;101952.00;;;;5005434;28;20237;-70
2022/01/29 03:49:18;;;;;;;41.13;16.83;;;;;6.70;101956.00;;;;5002954;28;20233;-71
2022/01/29 03:52:05;;;;;;;36.70;15.93;;;;;6.80;101945.00;;;;5000630;28;20909;-71
2022/01/29 03:54:51;;;;;;;34.57;15.77;;;;;6.70;101936.00;;;;5006317;28;20242;-67
2022/01/29 03:57:37;;;;;;;40.73;16.73;;;;;6.80;101940.00;;;;4998339;28;20234;-71
2022/01/29 04:00:23;;;;;;;41.17;16.50;;;;;6.80;101935.00;;;;5002991;28;20234;-71
2022/01/29 04:03:11;;;;;;;39.40;15.90;;;;;6.80;101938.00;;;;5001397;28;20725;-72
2022/01/29 04:05:58;;;;;;;35.57;15.37;;;;;6.80;101932.00;;;;4999549;28;20234;-70
2022/01/29 04:08:44;;;;;;;38.40;14.60;;;;;6.80;101934.00;;;;5005647;28;20829;-69
2022/01/29 04:11:33;;;;;;;39.10;15.73;;;;;6.70;101934.00;;;;5005096;28;20352;-71
2022/01/29 04:14:20;;;;;;;34.23;15.60;;;;;6.70;101943.00;;;;5005907;28;20308;-71
2022/01/29 04:17:07;;;;;;;35.53;16.53;;;;;6.70;101934.00;;;;5004989;28;20229;-72
2022/01/29 04:19:54;;;;;;;35.30;14.93;;;;;6.80;101920.00;;;;4999734;28;20238;-71
2022/01/29 04:22:40;;;;;;;37.53;15.47;;;;;6.70;101914.00;;;;5008523;28;20229;-71
2022/01/29 04:25:27;;;;;;;33.40;15.07;;;;;6.60;101930.00;;;;5001686;28;20313;-72
2022/01/29 04:28:14;;;;;;;34.93;14.87;;;;;6.90;101924.00;;;;5000085;28;20373;-72
2022/01/29 04:31:06;;;;;;;38.73;15.00;;;;;6.70;101921.00;;;;4998865;28;20353;-71
2022/01/29 04:33:52;;;;;;;35.97;14.17;;;;;6.70;101911.00;;;;4991485;28;20230;-71
2022/01/29 04:36:39;;;;;;;35.17;15.07;;;;;6.70;101910.00;;;;5005580;28;20257;-71
2022/01/29 04:39:26;;;;;;;35.03;14.20;;;;;6.70;101899.00;;;;5008611;28;20316;-72
2022/01/29 04:42:12;;;;;;;32.73;14.67;;;;;6.80;101892.00;;;;5009148;28;20230;-72
2022/01/29 04:44:59;;;;;;;29.53;13.70;;;;;6.80;101903.00;;;;5002709;28;20605;-66
2022/01/29 04:47:45;;;;;;;31.43;13.40;;;;;6.80;101899.00;;;;5006110;28;20258;-71
2022/01/29 04:50:31;;;;;;;31.97;13.13;;;;;6.80;101896.00;;;;5008659;28;20258;-71
2022/01/29 04:53:20;;;;;;;33.47;13.90;;;;;6.80;101894.00;;;;5009670;28;20234;-72
2022/01/29 04:56:06;;;;;;;31.93;13.53;;;;;6.90;101889.00;;;;5007321;28;20228;-71
2022/01/29 04:58:52;;;;;;;28.43;12.67;;;;;6.80;101881.00;;;;4996830;28;20229;-71
2022/01/29 05:01:39;;;;;;;34.10;13.70;;;;;6.70;101879.00;;;;5008524;28;20230;-70
2022/01/29 05:04:25;;;;;;;30.83;12.40;;;;;6.90;101865.00;;;;5006732;28;20234;-70
2022/01/29 05:07:12;;;;;;;33.23;13.47;;;;;6.90;101851.00;;;;5004643;28;20592;-71
2022/01/29 05:09:59;;;;;;;31.87;12.30;;;;;6.90;101869.00;;;;5002450;28;20285;-72
2022/01/29 05:12:50;;;;;;;31.53;12.50;;;;;6.90;101862.00;;;;4994304;28;20304;-66
2022/01/29 05:15:40;;;;;;;31.87;13.17;;;;;6.90;101855.00;;;;5008166;28;20862;-70
2022/01/29 05:27:45;;;;;;;33.73;13.03;;;;;7.00;101833.00;;;;5007342;28;20261;-71
2022/01/29 05:30:31;;;;;;;34.43;13.13;;;;;7.00;101837.00;;;;5007838;28;20342;-71
2022/01/29 05:33:17;;;;;;;32.13;13.60;;;;;7.00;101826.00;;;;5010162;28;20277;-71
2022/01/29 05:36:04;;;;;;;30.60;13.30;;;;;6.90;101819.00;;;;4998577;28;20235;-72
2022/01/29 05:38:50;;;;;;;39.13;14.70;;;;;7.00;101822.00;;;;4997436;28;21847;-71
2022/01/29 05:41:37;;;;;;;43.93;14.83;;;;;7.00;101823.00;;;;4992191;28;20230;-71
2022/01/29 05:44:24;;;;;;;41.73;15.43;;;;;7.00;101818.00;;;;5006847;28;20225;-72
2022/01/29 05:47:11;;;;;;;40.47;15.20;;;;;7.00;101823.00;;;;5004768;28;20242;-70
2022/01/29 05:49:57;;;;;;;36.03;14.73;;;;;7.00;101810.00;;;;4994128;28;20230;-72
2022/01/29 05:52:43;;;;;;;34.53;14.57;;;;;6.90;101813.00;;;;5007615;28;20242;-72
2022/01/29 05:55:29;;;;;;;39.57;15.50;;;;;7.00;101810.00;;;;5003409;28;20243;-71
2022/01/29 05:58:15;;;;;;;42.27;14.93;;;;;7.00;101810.00;;;;5007172;28;20226;-71
2022/01/29 06:01:03;;;;;;;38.70;14.33;;;;;7.10;101810.00;;;;5000487;28;20230;-70
2022/01/29 06:03:50;;;;;;;40.83;14.90;;;;;7.00;101823.00;;;;4998599;28;20229;-68
2022/01/29 06:06:36;;;;;;;37.20;14.10;;;;;7.00;101822.00;;;;4996729;28;20297;-72
2022/01/29 06:09:22;;;;;;;35.53;13.80;;;;;7.20;101827.00;;;;4999566;28;20226;-71
2022/01/29 06:12:09;;;;;;;39.93;14.60;;;;;7.10;101823.00;;;;5003602;28;20258;-71
2022/01/29 06:14:55;;;;;;;32.93;14.53;;;;;7.20;101842.00;;;;4995764;28;20287;-72
2022/01/29 06:17:43;;;;;;;37.77;13.77;;;;;7.20;101819.00;;;;4999710;28;20278;-70
2022/01/29 06:20:30;;;;;;;41.30;14.43;;;;;7.10;101817.00;;;;5006765;28;20295;-72
2022/01/29 06:23:20;;;;;;;40.17;14.83;;;;;7.10;101812.00;;;;5004481;28;20246;-69
2022/01/29 06:26:09;;;;;;;39.07;15.37;;;;;7.10;101817.00;;;;5001956;28;20234;-71
2022/01/29 06:28:55;;;;;;;39.37;15.43;;;;;7.20;101801.00;;;;5007551;28;20242;-71
2022/01/29 06:31:41;;;;;;;41.47;16.07;;;;;7.00;101799.00;;;;5007417;28;20601;-71
2022/01/29 06:34:29;;;;;;;40.60;15.90;;;;;7.20;101799.00;;;;5001420;28;20297;-71
2022/01/29 06:37:15;;;;;;;41.70;17.07;;;;;7.20;101782.00;;;;5007940;28;20233;-72
2022/01/29 06:40:01;;;;;;;40.07;16.33;;;;;7.20;101785.00;;;;4992118;28;20234;-71
2022/01/29 06:42:48;;;;;;;47.83;17.07;;;;;7.30;101767.00;;;;4999631;28;20226;-71
2022/01/29 06:45:36;;;;;;;51.40;17.70;;;;;7.20;101770.00;;;;5004506;28;20234;-70
2022/01/29 06:48:23;;;;;;;47.70;17.83;;;;;7.30;101777.00;;;;5003972;28;20669;-69
2022/01/29 06:51:10;;;;;;;42.57;17.23;;;;;7.30;101772.00;;;;5002288;28;20226;-70
2022/01/29 06:53:56;;;;;;;42.60;18.30;;;;;7.20;101780.00;;;;5002517;28;20237;-70
2022/01/29 06:56:45;;;;;;;44.70;17.73;;;;;7.20;101775.00;;;;4999016;28;20234;-70
2022/01/29 06:59:31;;;;;;;45.63;18.30;;;;;7.40;101771.00;;;;5006883;28;20357;-71
2022/01/29 07:02:17;;;;;;;43.30;18.93;;;;;7.40;101776.00;;;;5006690;28;20234;-72
2022/01/29 07:05:04;;;;;;;48.23;17.67;;;;;7.20;101779.00;;;;5001404;28;20234;-71
2022/01/29 07:07:52;;;;;;;42.50;16.87;;;;;7.30;101776.00;;;;4991984;28;20654;-71
2022/01/29 07:10:38;;;;;;;42.80;17.40;;;;;7.30;101771.00;;;;4993447;28;20250;-73
2022/01/29 07:13:25;;;;;;;39.20;16.37;;;;;7.20;101771.00;;;;4990930;28;20374;-73
2022/01/29 07:16:11;;;;;;;41.70;16.23;;;;;7.40;101759.00;;;;4989445;28;20230;-71
2022/01/29 07:18:57;;;;;;;38.97;16.53;;;;;7.40;101770.00;;;;4991770;28;20900;-72
2022/01/29 07:21:43;;;;;;;40.07;15.30;;;;;7.40;101765.00;;;;4998582;28;20250;-70
2022/01/29 07:24:31;;;;;;;41.27;15.63;;;;;7.40;101743.00;;;;4995048;28;20242;-71
2022/01/29 07:27:17;;;;;;;36.10;14.47;;;;;7.40;101757.00;;;;5006335;28;20226;-72
2022/01/29 07:30:04;;;;;;;38.57;16.30;;;;;7.30;101754.00;;;;4986710;28;20225;-73
2022/01/29 07:32:51;;;;;;;33.33;13.60;;;;;7.40;101744.00;;;;5000113;28;20261;-71
2022/01/29 07:35:37;;;;;;;38.07;15.00;;;;;7.50;101746.00;;;;5005016;28;20237;-68
2022/01/29 07:38:23;;;;;;;39.40;15.93;;;;;7.40;101747.00;;;;5003594;28;20229;-70
2022/01/29 07:41:11;;;;;;;36.63;14.20;;;;;7.40;101744.00;;;;5006059;28;20700;-71
2022/01/29 07:43:57;;;;;;;41.97;15.87;;;;;7.40;101741.00;;;;4999959;28;20240;-69
2022/01/29 07:46:44;;;;;;;39.23;15.30;;;;;7.50;101725.00;;;;4988169;28;20686;-70
2022/01/29 07:49:30;;;;;;;38.50;15.23;;;;;7.40;101730.00;;;;4987638;28;20230;-67
2022/01/29 07:52:17;;;;;;;39.70;15.47;;;;;7.60;101726.00;;;;5001649;28;20849;-72
2022/01/29 07:55:04;;;;;;;45.23;15.83;;;;;7.50;101710.00;;;;4993632;28;20266;-72
2022/01/29 07:57:51;;;;;;;39.43;15.47;;;;;7.60;101728.00;;;;4998184;28;20300;-71
2022/01/29 08:00:38;;;;;;;38.20;14.90;;;;;7.60;101727.00;;;;5006221;28;20234;-71
2022/01/29 08:03:24;;;;;;;35.33;15.13;;;;;7.60;101725.00;;;;5004956;28;20612;-70
2022/01/29 08:06:11;;;;;;;39.80;15.03;;;;;7.60;101731.00;;;;5001071;28;20284;-70
2022/01/29 08:08:57;;;;;;;42.57;15.03;;;;;7.60;101724.00;;;;4996109;28;20604;-70
2022/01/29 08:11:43;;;;;;;42.10;14.93;;;;;7.60;101717.00;;;;4997478;28;20234;-70
2022/01/29 08:14:31;;;;;;;40.30;15.53;;;;;7.70;101716.00;;;;5004957;28;20616;-70
2022/01/29 08:17:17;;;;;;;38.13;15.70;;;;;7.60;101705.00;;;;5005742;28;20229;-70
2022/01/29 08:20:04;;;;;;;37.70;14.97;;;;;7.60;101705.00;;;;4994377;28;20230;-69
2022/01/29 08:22:51;;;;;;;39.47;17.20;;;;;7.70;101701.00;;;;4998680;28;20232;-70
2022/01/29 08:25:38;;;;;;;40.63;15.80;;;;;7.70;101703.00;;;;5005378;28;20237;-70
2022/01/29 08:28:25;;;;;;;41.70;16.17;;;;;7.70;101705.00;;;;5005662;28;20730;-71
2022/01/29 08:31:12;;;;;;;46.77;14.53;;;;;7.60;101689.00;;;;5001092;28;20628;-70
2022/01/29 08:33:59;;;;;;;40.70;15.73;;;;;7.80;101705.00;;;;4999440;28;20241;-72
2022/01/29 08:36:45;;;;;;;42.23;16.40;;;;;7.80;101702.00;;;;4997811;28;20233;-72
2022/01/29 08:39:32;;;;;;;41.70;16.17;;;;;7.80;101692.00;;;;4995961;28;20230;-71
2022/01/29 08:42:18;;;;;;;38.00;15.70;;;;;7.90;101699.00;;;;5005133;28;20365;-70
2022/01/29 08:45:07;;;;;;;38.80;14.03;;;;;8.00;101705.00;;;;4995791;28;20240;-68
2022/01/29 08:47:58;;;;;;;42.27;16.87;;;;;8.10;101691.00;;;;4995999;28;20244;-70
2022/01/29 08:50:45;;;;;;;43.13;15.00;;;;;8.10;101689.00;;;;5002572;28;20229;-70
2022/01/29 08:53:34;;;;;;;34.73;14.57;;;;;8.00;101694.00;;;;5005068;28;20234;-69
2022/01/29 08:56:20;;;;;;;37.90;15.10;;;;;8.20;101690.00;;;;5002348;28;20246;-70
2022/01/29 08:59:06;;;;;;;38.83;15.23;;;;;8.10;101673.00;;;;5004191;28;20233;-70
2022/01/29 09:01:53;;;;;;;41.57;15.73;;;;;8.20;101683.00;;;;4993794;28;20229;-69
2022/01/29 09:04:40;;;;;;;29.73;13.53;;;;;8.10;101682.00;;;;5006617;28;20226;-71
2022/01/29 09:07:27;;;;;;;33.87;14.20;;;;;8.10;101673.00;;;;4999226;28;20609;-70
2022/01/29 09:10:14;;;;;;;32.13;14.07;;;;;8.20;101660.00;;;;5009038;28;20304;-73
2022/01/29 09:13:00;;;;;;;37.13;14.20;;;;;8.20;101655.00;;;;4996772;28;20285;-71
2022/01/29 09:15:46;;;;;;;29.33;12.87;;;;;8.00;101654.00;;;;5005944;28;20372;-70
2022/01/29 09:18:32;;;;;;;30.80;13.47;;;;;8.20;101621.00;;;;5003047;28;20234;-73
2022/01/29 09:21:19;;;;;;;28.60;12.80;;;;;8.20;101660.00;;;;5006603;28;20238;-73
2022/01/29 09:24:06;;;;;;;28.97;12.40;;;;;8.10;101662.00;;;;4996291;28;20234;-72
2022/01/29 09:26:52;;;;;;;30.23;12.23;;;;;8.10;101641.00;;;;5001519;28;20713;-73
2022/01/29 09:29:39;;;;;;;28.07;11.87;;;;;8.10;101644.00;;;;5002041;28;20230;-72
2022/01/29 09:32:25;;;;;;;30.93;12.93;;;;;8.20;101642.00;;;;5006612;28;20254;-73
2022/01/29 09:35:11;;;;;;;33.37;14.13;;;;;8.30;101641.00;;;;5003565;28;20319;-72
2022/01/29 09:37:59;;;;;;;32.60;13.43;;;;;8.30;101639.00;;;;5002522;28;20793;-72
2022/01/29 09:40:45;;;;;;;26.67;13.17;;;;;8.30;101646.00;;;;5000399;28;20242;-71
2022/01/29 09:43:34;;;;;;;31.47;13.20;;;;;8.30;101649.00;;;;5006388;28;20248;-72
2022/01/29 09:46:20;;;;;;;29.00;13.40;;;;;8.30;101650.00;;;;5008121;28;20234;-70
2022/01/29 09:49:13;;;;;;;26.20;11.97;;;;;8.30;101640.00;;;;4998544;28;20230;-72
2022/01/29 09:51:59;;;;;;;26.87;12.40;;;;;8.30;101630.00;;;;5001798;28;20976;-72
2022/01/29 09:54:48;;;;;;;25.77;12.97;;;;;8.30;101640.00;;;;4999744;28;20261;-73
2022/01/29 09:57:35;;;;;;;28.83;13.30;;;;;8.40;101645.00;;;;5007881;28;20301;-72
2022/01/29 10:00:22;;;;;;;28.43;12.63;;;;;8.50;101639.00;;;;5007777;28;20230;-73
2022/01/29 10:03:16;;;;;;;26.77;12.37;;;;;8.50;101641.00;;;;5007359;28;20276;-74
2022/01/29 10:06:03;;;;;;;25.53;11.83;;;;;8.50;101633.00;;;;4995639;28;20603;-70
2022/01/29 10:08:49;;;;;;;31.60;13.20;;;;;8.40;101624.00;;;;4993857;28;20237;-74
2022/01/29 10:11:37;;;;;;;28.63;13.00;;;;;8.50;101619.00;;;;4993418;28;20229;-70
2022/01/29 10:14:23;;;;;;;28.77;13.40;;;;;8.40;101616.00;;;;5004651;28;20238;-72
2022/01/29 10:17:09;;;;;;;28.50;13.73;;;;;8.50;101623.00;;;;4995913;28;20239;-74
2022/01/29 10:20:07;;;;;;;28.90;13.47;;;;;8.60;101607.00;;;;4995189;28;20365;-72
2022/01/29 10:22:55;;;;;;;27.27;13.30;;;;;8.50;101602.00;;;;4993337;28;20223;-71
2022/01/29 10:25:44;;;;;;;27.47;13.63;;;;;8.60;101597.00;;;;5006425;28;20276;-75
2022/01/29 10:28:33;;;;;;;28.47;13.57;;;;;8.60;101592.00;;;;5008272;28;20227;-75
2022/01/29 10:31:19;;;;;;;26.73;13.40;;;;;8.60;101586.00;;;;5004813;28;20241;-71
2022/01/29 10:34:19;;;;;;;29.87;14.20;;;;;8.70;101585.00;;;;4999004;28;20315;-75
2022/01/29 10:37:16;;;;;;;32.47;13.83;;;;;8.90;101586.00;;;;5002168;28;20369;-74
2022/01/29 10:40:22;;;;;;;33.13;14.53;;;;;8.90;101586.00;;;;5000695;28;20292;-73
2022/01/29 10:43:10;;;;;;;29.80;14.37;;;;;8.80;101577.00;;;;5003500;28;20861;-73
2022/01/29 10:45:57;;;;;;;28.17;13.73;;;;;8.70;101572.00;;;;5000206;28;20780;-73
2022/01/29 10:48:44;;;;;;;31.47;15.03;;;;;8.80;101581.00;;;;4999085;28;20274;-73
2022/01/29 10:51:30;;;;;;;30.23;14.30;;;;;8.80;101565.00;;;;4994634;28;20370;-73
2022/01/29 10:54:18;;;;;;;34.67;14.47;;;;;8.90;101555.00;;;;5000839;28;20231;-74
2022/01/29 10:57:06;;;;;;;28.33;13.60;;;;;8.80;101559.00;;;;4994917;28;20234;-73
2022/01/29 10:59:54;;;;;;;26.60;13.23;;;;;8.80;101550.00;;;;5007260;28;20238;-71
2022/01/29 11:02:43;;;;;;;27.93;12.90;;;;;8.90;101539.00;;;;5000273;28;20234;-73
2022/01/29 11:05:32;;;;;;;30.53;14.27;;;;;9.00;101529.00;;;;5000062;28;20251;-74
2022/01/29 11:08:19;;;;;;;27.17;13.27;;;;;9.10;101516.00;;;;4998109;28;20757;-71
2022/01/29 11:11:06;;;;;;;31.50;13.37;;;;;9.10;101514.00;;;;5006781;28;20233;-73
2022/01/29 11:14:02;;;;;;;29.97;13.33;;;;;9.00;101504.00;;;;5001306;28;20235;-74
2022/01/29 11:16:52;;;;;;;28.23;13.50;;;;;9.00;101505.00;;;;5001081;28;20257;-74
2022/01/29 11:19:42;;;;;;;31.60;14.80;;;;;9.10;101493.00;;;;5000181;28;20804;-74
2022/01/29 11:22:31;;;;;;;30.07;14.27;;;;;9.00;101480.00;;;;5004269;28;20248;-73
2022/01/29 11:25:20;;;;;;;31.13;14.80;;;;;9.10;101481.00;;;;4997381;28;20744;-74
2022/01/29 11:28:14;;;;;;;30.70;14.10;;;;;9.10;101478.00;;;;4998048;28;20230;-72
2022/01/29 11:31:24;;;;;;;32.63;14.63;;;;;9.10;101475.00;;;;5000336;28;20234;-74
2022/01/29 11:34:22;;;;;;;28.00;13.07;;;;;9.10;101477.00;;;;4999776;28;20722;-72
2022/01/29 11:37:10;;;;;;;28.33;13.43;;;;;9.20;101468.00;;;;4993269;28;20350;-69
2022/01/29 11:40:12;;;;;;;30.17;13.33;;;;;9.10;101459.00;;;;4995830;28;20284;-73
2022/01/29 11:43:10;;;;;;;27.10;12.60;;;;;9.20;101461.00;;;;4999077;28;20240;-69
2022/01/29 11:46:03;;;;;;;27.20;12.87;;;;;9.30;101463.00;;;;4999619;28;20265;-72
2022/01/29 11:49:00;;;;;;;31.63;14.00;;;;;9.40;101470.00;;;;5000733;28;20297;-71
2022/01/29 11:51:51;;;;;;;27.03;12.37;;;;;9.40;101468.00;;;;4997994;28;20236;-73
2022/01/29 11:54:59;;;;;;;28.87;12.27;;;;;9.40;101455.00;;;;5004725;28;20238;-72
2022/01/29 11:58:16;;;;;;;30.83;12.43;;;;;9.50;101429.00;;;;4997039;28;20235;-73
2022/01/29 12:01:04;;;;;;;27.80;11.97;;;;;9.50;101445.00;;;;4999364;28;20276;-72
2022/01/29 12:03:54;;;;;;;28.57;11.77;;;;;9.50;101445.00;;;;4996249;28;20855;-70
2022/01/29 12:07:10;;;;;;;23.47;11.77;;;;;9.50;101437.00;;;;4997873;28;20705;-70
2022/01/29 12:10:02;;;;;;;22.10;10.47;;;;;9.60;101436.00;;;;5000593;28;20247;-72
2022/01/29 12:13:10;;;;;;;26.03;11.27;;;;;9.60;101439.00;;;;5002881;28;20276;-69
2022/01/29 12:15:56;;;;;;;19.33;10.23;;;;;9.50;101429.00;;;;4992307;28;20631;-72
2022/01/29 12:18:42;;;;;;;21.93;10.50;;;;;9.70;101425.00;;;;5005313;28;20236;-73
2022/01/29 12:21:28;;;;;;;19.60;9.97;;;;;9.60;101415.00;;;;5003007;28;20897;-72
2022/01/29 12:24:20;;;;;;;20.60;10.73;;;;;9.70;101412.00;;;;5000531;28;20288;-71
2022/01/29 12:27:09;;;;;;;19.60;9.70;;;;;9.60;101413.00;;;;4991428;28;20245;-71
2022/01/29 12:29:55;;;;;;;17.60;10.00;;;;;9.70;101430.00;;;;5000164;28;20228;-71
2022/01/29 12:32:54;;;;;;;20.57;10.27;;;;;9.80;101430.00;;;;5001764;28;20370;-72
2022/01/29 12:35:46;;;;;;;17.80;9.80;;;;;9.80;101433.00;;;;5001743;28;20265;-73
2022/01/29 12:38:36;;;;;;;17.03;9.57;;;;;9.80;101423.00;;;;5007657;28;20348;-72
2022/01/29 12:41:26;;;;;;;19.67;9.33;;;;;9.80;101417.00;;;;5008305;28;20255;-71
2022/01/29 12:44:19;;;;;;;19.23;10.10;;;;;9.80;101403.00;;;;5003468;28;20603;-73
2022/01/29 12:47:06;;;;;;;18.40;9.77;;;;;9.90;101397.00;;;;5004289;28;20230;-76
2022/01/29 12:49:52;;;;;;;17.43;9.30;;;;;9.80;101391.00;;;;4992001;28;20286;-73
2022/01/29 12:52:38;;;;;;;17.47;8.90;;;;;9.80;101381.00;;;;4993416;28;20236;-73
2022/01/29 12:55:25;;;;;;;13.67;8.30;;;;;9.80;101386.00;;;;4996224;28;20366;-70
2022/01/29 12:58:11;;;;;;;14.77;8.70;;;;;9.90;101357.00;;;;5000636;28;20364;-71
2022/01/29 13:01:07;;;;;;;18.07;9.00;;;;;9.80;101356.00;;;;4998469;28;20243;-73
2022/01/29 13:04:00;;;;;;;18.37;9.23;;;;;9.80;101341.00;;;;5004013;28;20272;-72
2022/01/29 13:06:48;;;;;;;14.63;9.30;;;;;10.00;101323.00;;;;5007623;28;20297;-70
2022/01/29 13:09:36;;;;;;;15.90;8.23;;;;;10.00;101333.00;;;;5006460;28;20797;-73
2022/01/29 13:12:23;;;;;;;13.67;8.13;;;;;10.00;101330.00;;;;4998525;28;20807;-70
2022/01/29 13:15:11;;;;;;;14.50;8.80;;;;;9.90;101334.00;;;;4991334;28;20287;-73
2022/01/29 13:17:59;;;;;;;14.37;8.70;;;;;10.10;101334.00;;;;5002523;28;20239;-72
2022/01/29 13:20:45;;;;;;;14.70;8.60;;;;;10.10;101324.00;;;;5004404;28;20269;-73
2022/01/29 13:23:34;;;;;;;16.30;8.43;;;;;10.20;101335.00;;;;5008135;28;20238;-74
2022/01/29 13:26:28;;;;;;;12.13;7.67;;;;;10.20;101357.00;;;;5008805;28;20322;-73
2022/01/29 13:29:17;;;;;;;13.27;8.27;;;;;10.10;101338.00;;;;5004483;28;20283;-73
2022/01/29 13:32:05;;;;;;;14.13;8.17;;;;;10.10;101334.00;;;;5004939;28;20229;-73
2022/01/29 13:34:53;;;;;;;14.60;8.53;;;;;10.10;101308.00;;;;5001693;28;20245;-70
2022/01/29 13:37:39;;;;;;;13.10;8.33;;;;;10.10;101332.00;;;;5007500;28;20745;-69
2022/01/29 13:40:33;;;;;;;13.03;7.70;;;;;10.20;101342.00;;;;5002973;28;20236;-74
2022/01/29 13:43:33;;;;;;;11.93;7.47;;;;;10.10;101333.00;;;;5000111;28;20606;-73
2022/01/29 13:46:24;;;;;;;11.37;7.30;;;;;10.20;101322.00;;;;5004079;28;20316;-73
2022/01/29 13:49:11;;;;;;;13.07;7.43;;;;;10.20;101336.00;;;;5003456;28;20803;-71